sensor_id;sensor_type;location;lat;lon;timestamp;P1;durP1;ratioP1;P2;durP2;ratioP2
18711;SDS011;9485;49.386;8.674;2022-10-30T00:03:49;9.37;;;6.07;;
18711;SDS011;9485;49.386;8.674;2022-10-30T00:09:10;10.30;;;6.63;;
18711;SDS011;9485;49.386;8.674;2022-10-30T00:14:32;11.77;;;7.00;;
18711;SDS011;9485;49.386;8.674;2022-10-30T00:19:53;8.30;;;5.47;;
18711;SDS011;9485;49.386;8.674;2022-10-30T00:25:14;9.07;;;5.33;;
18711;SDS011;9485;49.386;8.674;2022-10-30T00:30:36;8.47;;;5.43;;
18711;SDS011;9485;49.386;8.674;2022-10-30T00:35:57;7.73;;;6.17;;
18711;SDS011;9485;49.386;8.674;2022-10-30T00:41:20;8.47;;;5.57;;
18711;SDS011;9485;49.386;8.674;2022-10-30T00:46:44;10.30;;;5.07;;
18711;SDS011;9485;49.386;8.674;2022-10-30T00:52:05;9.40;;;6.63;;
18711;SDS011;9485;49.386;8.674;2022-10-30T00:57:29;7.97;;;5.70;;
18711;SDS011;9485;49.386;8.674;2022-10-30T01:02:54;8.80;;;5.77;;
18711;SDS011;9485;49.386;8.674;2022-10-30T01:08:16;9.37;;;6.10;;
18711;SDS011;9485;49.386;8.674;2022-10-30T01:13:38;9.07;;;6.83;;
18711;SDS011;9485;49.386;8.674;2022-10-30T01:19:07;7.87;;;5.60;;
18711;SDS011;9485;49.386;8.674;2022-10-30T01:24:45;7.33;;;5.90;;
18711;SDS011;9485;49.386;8.674;2022-10-30T01:30:23;9.50;;;5.47;;
18711;SDS011;9485;49.386;8.674;2022-10-30T01:36:07;7.73;;;5.30;;
18711;SDS011;9485;49.386;8.674;2022-10-30T01:41:38;8.20;;;5.33;;
18711;SDS011;9485;49.386;8.674;2022-10-30T01:47:03;11.93;;;5.33;;
18711;SDS011;9485;49.386;8.674;2022-10-30T01:52:45;8.90;;;5.77;;
18711;SDS011;9485;49.386;8.674;2022-10-30T01:58:19;9.40;;;5.43;;
18711;SDS011;9485;49.386;8.674;2022-10-30T02:03:45;8.60;;;5.20;;
18711;SDS011;9485;49.386;8.674;2022-10-30T02:09:08;9.07;;;5.43;;
18711;SDS011;9485;49.386;8.674;2022-10-30T02:14:35;7.67;;;4.97;;
18711;SDS011;9485;49.386;8.674;2022-10-30T02:20:02;9.47;;;4.53;;
18711;SDS011;9485;49.386;8.674;2022-10-30T02:25:26;10.70;;;4.00;;
18711;SDS011;9485;49.386;8.674;2022-10-30T02:30:46;6.00;;;3.97;;
18711;SDS011;9485;49.386;8.674;2022-10-30T02:36:07;9.63;;;4.40;;
18711;SDS011;9485;49.386;8.674;2022-10-30T02:41:29;7.43;;;3.90;;
18711;SDS011;9485;49.386;8.674;2022-10-30T02:46:51;6.77;;;4.13;;
18711;SDS011;9485;49.386;8.674;2022-10-30T02:52:14;6.23;;;3.97;;
18711;SDS011;9485;49.386;8.674;2022-10-30T02:57:38;5.83;;;4.07;;
18711;SDS011;9485;49.386;8.674;2022-10-30T03:02:59;7.43;;;3.77;;
18711;SDS011;9485;49.386;8.674;2022-10-30T03:08:20;21.53;;;4.93;;
18711;SDS011;9485;49.386;8.674;2022-10-30T03:13:42;4.00;;;3.60;;
18711;SDS011;9485;49.386;8.674;2022-10-30T03:19:05;4.70;;;3.20;;
18711;SDS011;9485;49.386;8.674;2022-10-30T03:24:26;5.87;;;3.40;;
18711;SDS011;9485;49.386;8.674;2022-10-30T03:29:48;4.60;;;3.47;;
18711;SDS011;9485;49.386;8.674;2022-10-30T03:35:09;5.70;;;3.57;;
18711;SDS011;9485;49.386;8.674;2022-10-30T03:40:29;7.20;;;4.40;;
18711;SDS011;9485;49.386;8.674;2022-10-30T03:45:52;6.10;;;3.50;;
18711;SDS011;9485;49.386;8.674;2022-10-30T03:51:14;6.53;;;3.93;;
18711;SDS011;9485;49.386;8.674;2022-10-30T03:56:38;3.53;;;3.10;;
18711;SDS011;9485;49.386;8.674;2022-10-30T04:02:03;6.47;;;3.20;;
18711;SDS011;9485;49.386;8.674;2022-10-30T04:07:23;4.40;;;3.27;;
18711;SDS011;9485;49.386;8.674;2022-10-30T04:12:45;4.30;;;3.17;;
18711;SDS011;9485;49.386;8.674;2022-10-30T04:18:07;5.60;;;3.70;;
18711;SDS011;9485;49.386;8.674;2022-10-30T04:23:30;3.73;;;3.07;;
18711;SDS011;9485;49.386;8.674;2022-10-30T04:28:51;3.90;;;2.73;;
18711;SDS011;9485;49.386;8.674;2022-10-30T04:34:13;6.40;;;3.00;;
18711;SDS011;9485;49.386;8.674;2022-10-30T04:39:35;7.40;;;3.00;;
18711;SDS011;9485;49.386;8.674;2022-10-30T04:45:06;3.80;;;2.50;;
18711;SDS011;9485;49.386;8.674;2022-10-30T04:50:29;5.63;;;3.50;;
18711;SDS011;9485;49.386;8.674;2022-10-30T04:55:52;3.87;;;2.53;;
18711;SDS011;9485;49.386;8.674;2022-10-30T05:01:13;4.10;;;3.17;;
18711;SDS011;9485;49.386;8.674;2022-10-30T05:06:35;4.97;;;3.33;;
18711;SDS011;9485;49.386;8.674;2022-10-30T05:11:56;6.10;;;3.17;;
18711;SDS011;9485;49.386;8.674;2022-10-30T05:17:17;3.87;;;2.63;;
18711;SDS011;9485;49.386;8.674;2022-10-30T05:22:39;6.50;;;3.37;;
18711;SDS011;9485;49.386;8.674;2022-10-30T05:28:00;7.23;;;3.30;;
18711;SDS011;9485;49.386;8.674;2022-10-30T05:33:29;4.50;;;2.63;;
18711;SDS011;9485;49.386;8.674;2022-10-30T05:38:51;5.90;;;3.40;;
18711;SDS011;9485;49.386;8.674;2022-10-30T05:44:22;6.50;;;3.37;;
18711;SDS011;9485;49.386;8.674;2022-10-30T05:49:43;3.03;;;2.40;;
18711;SDS011;9485;49.386;8.674;2022-10-30T05:55:10;7.33;;;3.20;;
18711;SDS011;9485;49.386;8.674;2022-10-30T06:00:38;8.13;;;3.07;;
18711;SDS011;9485;49.386;8.674;2022-10-30T06:06:02;6.37;;;3.10;;
18711;SDS011;9485;49.386;8.674;2022-10-30T06:11:24;5.33;;;3.00;;
18711;SDS011;9485;49.386;8.674;2022-10-30T06:16:47;7.03;;;4.20;;
18711;SDS011;9485;49.386;8.674;2022-10-30T06:22:16;6.03;;;3.80;;
18711;SDS011;9485;49.386;8.674;2022-10-30T06:27:47;6.50;;;3.50;;
18711;SDS011;9485;49.386;8.674;2022-10-30T06:33:08;5.53;;;3.40;;
18711;SDS011;9485;49.386;8.674;2022-10-30T06:38:33;8.80;;;4.10;;
18711;SDS011;9485;49.386;8.674;2022-10-30T06:43:55;5.10;;;3.40;;
18711;SDS011;9485;49.386;8.674;2022-10-30T06:49:17;4.60;;;3.20;;
18711;SDS011;9485;49.386;8.674;2022-10-30T06:54:38;5.23;;;3.37;;
18711;SDS011;9485;49.386;8.674;2022-10-30T07:00:23;5.60;;;3.50;;
18711;SDS011;9485;49.386;8.674;2022-10-30T07:06:02;4.33;;;3.43;;
18711;SDS011;9485;49.386;8.674;2022-10-30T07:11:24;5.70;;;3.80;;
18711;SDS011;9485;49.386;8.674;2022-10-30T07:17:12;5.93;;;3.60;;
18711;SDS011;9485;49.386;8.674;2022-10-30T07:22:37;6.83;;;3.63;;
18711;SDS011;9485;49.386;8.674;2022-10-30T07:27:58;4.33;;;3.37;;
18711;SDS011;9485;49.386;8.674;2022-10-30T07:33:27;5.47;;;3.53;;
18711;SDS011;9485;49.386;8.674;2022-10-30T07:39:06;5.07;;;3.17;;
18711;SDS011;9485;49.386;8.674;2022-10-30T07:44:31;5.90;;;3.40;;
18711;SDS011;9485;49.386;8.674;2022-10-30T07:50:20;4.87;;;3.07;;
18711;SDS011;9485;49.386;8.674;2022-10-30T07:55:41;6.97;;;3.57;;
18711;SDS011;9485;49.386;8.674;2022-10-30T08:01:05;8.70;;;4.40;;
18711;SDS011;9485;49.386;8.674;2022-10-30T08:06:28;7.93;;;4.10;;
18711;SDS011;9485;49.386;8.674;2022-10-30T08:11:49;6.80;;;3.77;;
18711;SDS011;9485;49.386;8.674;2022-10-30T08:17:09;5.33;;;3.73;;
18711;SDS011;9485;49.386;8.674;2022-10-30T08:22:31;4.93;;;3.83;;
18711;SDS011;9485;49.386;8.674;2022-10-30T08:27:53;5.17;;;4.10;;
18711;SDS011;9485;49.386;8.674;2022-10-30T08:33:18;5.53;;;3.70;;
18711;SDS011;9485;49.386;8.674;2022-10-30T08:38:49;5.90;;;4.25;;
18711;SDS011;9485;49.386;8.674;2022-10-30T08:44:20;6.45;;;3.22;;
18711;SDS011;9485;49.386;8.674;2022-10-30T08:50:16;7.25;;;4.47;;
18711;SDS011;9485;49.386;8.674;2022-10-30T08:55:38;8.32;;;3.95;;
18711;SDS011;9485;49.386;8.674;2022-10-30T09:01:07;5.25;;;3.35;;
18711;SDS011;9485;49.386;8.674;2022-10-30T09:06:54;6.63;;;3.70;;
18711;SDS011;9485;49.386;8.674;2022-10-30T09:12:35;5.40;;;3.60;;
18711;SDS011;9485;49.386;8.674;2022-10-30T09:17:56;4.30;;;3.28;;
18711;SDS011;9485;49.386;8.674;2022-10-30T09:23:18;4.38;;;3.30;;
18711;SDS011;9485;49.386;8.674;2022-10-30T09:28:45;5.18;;;3.58;;
18711;SDS011;9485;49.386;8.674;2022-10-30T09:34:25;7.80;;;4.28;;
18711;SDS011;9485;49.386;8.674;2022-10-30T09:40:03;6.38;;;3.83;;
18711;SDS011;9485;49.386;8.674;2022-10-30T09:45:32;6.20;;;3.78;;
18711;SDS011;9485;49.386;8.674;2022-10-30T09:51:37;6.82;;;3.45;;
18711;SDS011;9485;49.386;8.674;2022-10-30T09:57:17;7.32;;;3.42;;
18711;SDS011;9485;49.386;8.674;2022-10-30T10:02:52;7.00;;;3.15;;
18711;SDS011;9485;49.386;8.674;2022-10-30T10:08:48;5.15;;;3.35;;
18711;SDS011;9485;49.386;8.674;2022-10-30T10:14:39;7.20;;;3.28;;
18711;SDS011;9485;49.386;8.674;2022-10-30T10:20:10;4.53;;;3.15;;
18711;SDS011;9485;49.386;8.674;2022-10-30T10:25:38;9.25;;;3.83;;
18711;SDS011;9485;49.386;8.674;2022-10-30T10:31:12;7.07;;;3.05;;
18711;SDS011;9485;49.386;8.674;2022-10-30T10:36:50;4.95;;;3.22;;
18711;SDS011;9485;49.386;8.674;2022-10-30T10:42:23;4.25;;;2.70;;
18711;SDS011;9485;49.386;8.674;2022-10-30T10:54:07;4.85;;;3.28;;
18711;SDS011;9485;49.386;8.674;2022-10-30T10:59:35;4.03;;;2.60;;
18711;SDS011;9485;49.386;8.674;2022-10-30T11:05:04;6.57;;;3.28;;
18711;SDS011;9485;49.386;8.674;2022-10-30T11:10:32;9.45;;;4.28;;
18711;SDS011;9485;49.386;8.674;2022-10-30T11:15:54;4.13;;;2.78;;
18711;SDS011;9485;49.386;8.674;2022-10-30T11:21:23;4.82;;;2.92;;
18711;SDS011;9485;49.386;8.674;2022-10-30T11:26:47;3.53;;;2.83;;
18711;SDS011;9485;49.386;8.674;2022-10-30T11:32:08;5.32;;;2.72;;
18711;SDS011;9485;49.386;8.674;2022-10-30T11:37:40;5.85;;;2.88;;
18711;SDS011;9485;49.386;8.674;2022-10-30T11:43:08;3.72;;;2.38;;
18711;SDS011;9485;49.386;8.674;2022-10-30T11:48:38;6.15;;;3.10;;
18711;SDS011;9485;49.386;8.674;2022-10-30T11:54:03;10.00;;;2.67;;
18711;SDS011;9485;49.386;8.674;2022-10-30T11:59:26;3.38;;;2.28;;
18711;SDS011;9485;49.386;8.674;2022-10-30T12:04:47;3.47;;;2.55;;
18711;SDS011;9485;49.386;8.674;2022-10-30T12:10:18;3.55;;;2.42;;
18711;SDS011;9485;49.386;8.674;2022-10-30T12:15:46;5.15;;;2.00;;
18711;SDS011;9485;49.386;8.674;2022-10-30T12:21:09;4.20;;;2.33;;
18711;SDS011;9485;49.386;8.674;2022-10-30T12:26:38;2.90;;;2.28;;
18711;SDS011;9485;49.386;8.674;2022-10-30T12:32:03;5.57;;;2.03;;
18711;SDS011;9485;49.386;8.674;2022-10-30T12:37:28;3.42;;;1.77;;
18711;SDS011;9485;49.386;8.674;2022-10-30T12:42:57;4.38;;;2.13;;
18711;SDS011;9485;49.386;8.674;2022-10-30T12:48:31;4.60;;;2.05;;
18711;SDS011;9485;49.386;8.674;2022-10-30T12:54:01;6.28;;;2.17;;
18711;SDS011;9485;49.386;8.674;2022-10-30T12:59:38;2.75;;;1.88;;
18711;SDS011;9485;49.386;8.674;2022-10-30T13:05:18;6.20;;;3.88;;
18711;SDS011;9485;49.386;8.674;2022-10-30T13:10:49;4.32;;;2.10;;
18711;SDS011;9485;49.386;8.674;2022-10-30T13:16:14;4.10;;;2.40;;
18711;SDS011;9485;49.386;8.674;2022-10-30T13:21:45;4.45;;;2.55;;
18711;SDS011;9485;49.386;8.674;2022-10-30T13:27:15;4.18;;;2.35;;
18711;SDS011;9485;49.386;8.674;2022-10-30T13:32:52;5.85;;;2.65;;
18711;SDS011;9485;49.386;8.674;2022-10-30T13:38:36;4.47;;;2.65;;
18711;SDS011;9485;49.386;8.674;2022-10-30T13:44:06;4.07;;;2.65;;
18711;SDS011;9485;49.386;8.674;2022-10-30T13:49:53;4.45;;;2.22;;
18711;SDS011;9485;49.386;8.674;2022-10-30T13:55:36;3.70;;;2.53;;
18711;SDS011;9485;49.386;8.674;2022-10-30T14:01:00;4.72;;;3.38;;
18711;SDS011;9485;49.386;8.674;2022-10-30T14:06:30;5.25;;;2.92;;
18711;SDS011;9485;49.386;8.674;2022-10-30T14:18:24;9.18;;;8.23;;
18711;SDS011;9485;49.386;8.674;2022-10-30T14:24:04;7.15;;;5.32;;
18711;SDS011;9485;49.386;8.674;2022-10-30T14:29:40;7.10;;;4.00;;
18711;SDS011;9485;49.386;8.674;2022-10-30T14:47:08;6.60;;;4.03;;
18711;SDS011;9485;49.386;8.674;2022-10-30T14:53:19;8.40;;;3.60;;
18711;SDS011;9485;49.386;8.674;2022-10-30T14:59:16;6.32;;;3.58;;
18711;SDS011;9485;49.386;8.674;2022-10-30T15:04:47;5.50;;;3.08;;
18711;SDS011;9485;49.386;8.674;2022-10-30T15:10:26;5.07;;;3.03;;
18711;SDS011;9485;49.386;8.674;2022-10-30T15:15:55;4.88;;;3.15;;
18711;SDS011;9485;49.386;8.674;2022-10-30T15:21:19;5.70;;;3.55;;
18711;SDS011;9485;49.386;8.674;2022-10-30T15:26:47;5.47;;;3.15;;
18711;SDS011;9485;49.386;8.674;2022-10-30T15:32:14;7.85;;;3.20;;
18711;SDS011;9485;49.386;8.674;2022-10-30T15:37:38;6.07;;;3.38;;
18711;SDS011;9485;49.386;8.674;2022-10-30T15:42:59;5.35;;;3.58;;
18711;SDS011;9485;49.386;8.674;2022-10-30T15:48:24;6.25;;;3.60;;
18711;SDS011;9485;49.386;8.674;2022-10-30T15:53:50;10.68;;;3.60;;
18711;SDS011;9485;49.386;8.674;2022-10-30T15:59:16;4.13;;;3.47;;
18711;SDS011;9485;49.386;8.674;2022-10-30T16:04:41;7.72;;;3.60;;
18711;SDS011;9485;49.386;8.674;2022-10-30T16:10:03;8.25;;;3.97;;
18711;SDS011;9485;49.386;8.674;2022-10-30T16:15:37;10.80;;;5.43;;
18711;SDS011;9485;49.386;8.674;2022-10-30T16:20:59;5.55;;;4.05;;
18711;SDS011;9485;49.386;8.674;2022-10-30T16:26:27;6.22;;;3.70;;
18711;SDS011;9485;49.386;8.674;2022-10-30T16:31:51;4.00;;;3.20;;
18711;SDS011;9485;49.386;8.674;2022-10-30T16:37:14;6.53;;;3.83;;
18711;SDS011;9485;49.386;8.674;2022-10-30T16:42:43;8.32;;;4.70;;
18711;SDS011;9485;49.386;8.674;2022-10-30T16:48:16;7.65;;;5.15;;
18711;SDS011;9485;49.386;8.674;2022-10-30T16:53:45;8.38;;;4.72;;
18711;SDS011;9485;49.386;8.674;2022-10-30T16:59:11;7.00;;;5.22;;
18711;SDS011;9485;49.386;8.674;2022-10-30T17:04:39;9.02;;;4.95;;
18711;SDS011;9485;49.386;8.674;2022-10-30T17:15:53;9.57;;;5.38;;
18711;SDS011;9485;49.386;8.674;2022-10-30T17:21:15;6.87;;;4.10;;
18711;SDS011;9485;49.386;8.674;2022-10-30T17:26:39;7.82;;;4.80;;
18711;SDS011;9485;49.386;8.674;2022-10-30T17:32:01;8.53;;;4.27;;
18711;SDS011;9485;49.386;8.674;2022-10-30T17:37:23;6.50;;;4.77;;
18711;SDS011;9485;49.386;8.674;2022-10-30T17:42:44;8.33;;;5.40;;
18711;SDS011;9485;49.386;8.674;2022-10-30T17:48:10;9.57;;;5.63;;
18711;SDS011;9485;49.386;8.674;2022-10-30T17:53:33;11.73;;;6.57;;
18711;SDS011;9485;49.386;8.674;2022-10-30T17:58:55;10.23;;;5.90;;
18711;SDS011;9485;49.386;8.674;2022-10-30T18:04:17;10.67;;;6.07;;
18711;SDS011;9485;49.386;8.674;2022-10-30T18:09:39;7.20;;;5.47;;
18711;SDS011;9485;49.386;8.674;2022-10-30T18:15:03;7.37;;;5.17;;
18711;SDS011;9485;49.386;8.674;2022-10-30T18:20:50;8.60;;;5.57;;
18711;SDS011;9485;49.386;8.674;2022-10-30T18:26:11;8.13;;;5.70;;
18711;SDS011;9485;49.386;8.674;2022-10-30T18:31:34;10.07;;;6.13;;
18711;SDS011;9485;49.386;8.674;2022-10-30T18:36:57;10.13;;;6.00;;
18711;SDS011;9485;49.386;8.674;2022-10-30T18:42:19;9.53;;;6.20;;
18711;SDS011;9485;49.386;8.674;2022-10-30T18:47:40;10.73;;;6.00;;
18711;SDS011;9485;49.386;8.674;2022-10-30T18:53:02;8.00;;;5.00;;
18711;SDS011;9485;49.386;8.674;2022-10-30T18:58:32;6.63;;;4.60;;
18711;SDS011;9485;49.386;8.674;2022-10-30T19:03:52;7.50;;;4.33;;
18711;SDS011;9485;49.386;8.674;2022-10-30T19:09:14;6.60;;;4.80;;
18711;SDS011;9485;49.386;8.674;2022-10-30T19:14:35;7.90;;;4.47;;
18711;SDS011;9485;49.386;8.674;2022-10-30T19:19:55;8.00;;;4.30;;
18711;SDS011;9485;49.386;8.674;2022-10-30T19:25:18;7.87;;;4.30;;
18711;SDS011;9485;49.386;8.674;2022-10-30T19:30:42;8.00;;;4.67;;
18711;SDS011;9485;49.386;8.674;2022-10-30T19:36:22;8.70;;;4.37;;
18711;SDS011;9485;49.386;8.674;2022-10-30T19:41:48;8.27;;;4.97;;
18711;SDS011;9485;49.386;8.674;2022-10-30T19:47:08;4.80;;;3.90;;
18711;SDS011;9485;49.386;8.674;2022-10-30T19:52:30;8.30;;;4.70;;
18711;SDS011;9485;49.386;8.674;2022-10-30T19:57:52;7.73;;;4.70;;
18711;SDS011;9485;49.386;8.674;2022-10-30T20:03:14;8.50;;;5.07;;
18711;SDS011;9485;49.386;8.674;2022-10-30T20:08:36;8.07;;;5.10;;
18711;SDS011;9485;49.386;8.674;2022-10-30T20:13:58;9.93;;;4.83;;
18711;SDS011;9485;49.386;8.674;2022-10-30T20:19:25;9.80;;;5.73;;
18711;SDS011;9485;49.386;8.674;2022-10-30T20:24:48;9.63;;;5.73;;
18711;SDS011;9485;49.386;8.674;2022-10-30T20:30:11;7.37;;;5.50;;
18711;SDS011;9485;49.386;8.674;2022-10-30T20:35:35;7.97;;;5.07;;
18711;SDS011;9485;49.386;8.674;2022-10-30T20:40:56;7.07;;;4.37;;
18711;SDS011;9485;49.386;8.674;2022-10-30T20:46:20;6.77;;;4.80;;
18711;SDS011;9485;49.386;8.674;2022-10-30T20:51:41;10.47;;;5.47;;
18711;SDS011;9485;49.386;8.674;2022-10-30T20:57:02;11.60;;;5.47;;
18711;SDS011;9485;49.386;8.674;2022-10-30T21:02:24;6.77;;;4.40;;
18711;SDS011;9485;49.386;8.674;2022-10-30T21:07:44;10.37;;;4.73;;
18711;SDS011;9485;49.386;8.674;2022-10-30T21:13:05;11.63;;;5.17;;
18711;SDS011;9485;49.386;8.674;2022-10-30T21:18:27;16.87;;;9.40;;
18711;SDS011;9485;49.386;8.674;2022-10-30T21:23:51;15.27;;;8.97;;
18711;SDS011;9485;49.386;8.674;2022-10-30T21:29:12;12.60;;;7.57;;
18711;SDS011;9485;49.386;8.674;2022-10-30T21:34:34;9.60;;;6.73;;
18711;SDS011;9485;49.386;8.674;2022-10-30T21:39:55;9.23;;;6.37;;
18711;SDS011;9485;49.386;8.674;2022-10-30T21:45:15;8.10;;;5.67;;
18711;SDS011;9485;49.386;8.674;2022-10-30T21:50:37;9.90;;;5.80;;
18711;SDS011;9485;49.386;8.674;2022-10-30T21:56:01;6.33;;;4.57;;
18711;SDS011;9485;49.386;8.674;2022-10-30T22:01:25;10.87;;;6.33;;
18711;SDS011;9485;49.386;8.674;2022-10-30T22:06:50;8.47;;;5.90;;
18711;SDS011;9485;49.386;8.674;2022-10-30T22:12:10;9.17;;;6.00;;
18711;SDS011;9485;49.386;8.674;2022-10-30T22:17:31;10.53;;;6.03;;
18711;SDS011;9485;49.386;8.674;2022-10-30T22:22:53;10.33;;;5.80;;
18711;SDS011;9485;49.386;8.674;2022-10-30T22:28:14;8.67;;;5.67;;
18711;SDS011;9485;49.386;8.674;2022-10-30T22:33:35;8.77;;;5.77;;
18711;SDS011;9485;49.386;8.674;2022-10-30T22:38:58;15.87;;;6.73;;
18711;SDS011;9485;49.386;8.674;2022-10-30T22:44:21;8.57;;;5.97;;
18711;SDS011;9485;49.386;8.674;2022-10-30T22:49:41;12.17;;;7.30;;
18711;SDS011;9485;49.386;8.674;2022-10-30T22:55:04;9.90;;;6.70;;
18711;SDS011;9485;49.386;8.674;2022-10-30T23:00:25;9.03;;;6.10;;
18711;SDS011;9485;49.386;8.674;2022-10-30T23:05:51;11.20;;;7.23;;
18711;SDS011;9485;49.386;8.674;2022-10-30T23:11:14;10.73;;;6.43;;
18711;SDS011;9485;49.386;8.674;2022-10-30T23:16:34;12.20;;;6.60;;
18711;SDS011;9485;49.386;8.674;2022-10-30T23:21:55;12.07;;;6.47;;
18711;SDS011;9485;49.386;8.674;2022-10-30T23:27:21;10.07;;;6.00;;
18711;SDS011;9485;49.386;8.674;2022-10-30T23:32:42;11.17;;;6.20;;
18711;SDS011;9485;49.386;8.674;2022-10-30T23:38:06;6.87;;;4.90;;
18711;SDS011;9485;49.386;8.674;2022-10-30T23:43:28;13.20;;;6.03;;
18711;SDS011;9485;49.386;8.674;2022-10-30T23:48:49;7.90;;;4.57;;
18711;SDS011;9485;49.386;8.674;2022-10-30T23:54:09;7.37;;;4.90;;
18711;SDS011;9485;49.386;8.674;2022-10-30T23:59:31;8.20;;;4.67;;
